Conche, Canada
Current Conditions -  °F | °C
As of 4:00 PM on Monday 22 Dec 2014 (Local Time) from CYAY Reporting Station
Overcast Overcast  
Wind Chill: 15°   Ceiling: 1300
Heat Index: 21°   Visibility: 9mi
Dew Point: 18°   Wind: 5mph
Humidity: 86%   Direction: 210°SSW
Pressure: 30.4"   Gusts: NA
Location:  50.9°N, 55.9°W
Report Text: CYAY 221900Z AUTO 21004KT 9SM OVC013 M06/M08 A3040 RMK SLP299
Loading
Personal Weather Stations






























Interactive Weather Map New forecast layout! Learn more

10-Day Weather Forecast

Advertisements
Track Severe Weather on mobile